LFBC 180030Z AUTO 02007KT CAVOK 19/15 Q1017
LFBD 180030Z AUTO 02007KT CAVOK 19/16 Q1018 NOSIG